Time;durP1;ratioP1;P1;durP2;ratioP2;P2;SDS_P1;SDS_P2;PMS_P1;PMS_P2;Temp;Humidity;BMP_temperature;BMP_pressure;BME280_temperature;BME280_humidity;BME280_pressure;Samples;Min_cycle;Max_cycle;Signal;HPM_P1;HPM_P2
2024/01/29 00:01:11;;;;;;;53.50;23.27;;;-0.20;99.90;;;;;;4441041;28;658201;-77
2024/01/29 00:03:58;;;;;;;52.17;21.53;;;-0.20;99.90;;;;;;4409189;28;658678;-77
2024/01/29 00:06:46;;;;;;;50.53;20.90;;;-0.20;99.90;;;;;;4438941;28;658745;-77
2024/01/29 00:09:33;;;;;;;46.27;19.67;;;-0.20;99.90;;;;;;4395764;28;658814;-77
2024/01/29 00:12:21;;;;;;;48.97;20.10;;;-0.30;99.90;;;;;;4440026;28;659220;-75
2024/01/29 00:15:09;;;;;;;51.10;20.40;;;-0.30;99.90;;;;;;4400390;28;659212;-75
2024/01/29 00:17:57;;;;;;;52.23;20.40;;;-0.30;99.90;;;;;;4433959;28;658646;-75
2024/01/29 00:20:44;;;;;;;45.73;21.40;;;-0.40;99.90;;;;;;4416016;28;659230;-75
2024/01/29 00:23:31;;;;;;;52.87;22.50;;;-0.40;99.90;;;;;;4436059;28;658524;-75
2024/01/29 00:26:18;;;;;;;52.20;22.17;;;-0.50;99.90;;;;;;4403336;28;658921;-76
2024/01/29 00:29:05;;;;;;;56.50;23.23;;;-0.50;99.90;;;;;;4425155;28;659155;-76
2024/01/29 00:31:54;;;;;;;57.17;22.80;;;-0.50;99.90;;;;;;4392498;28;658654;-76
2024/01/29 00:34:41;;;;;;;52.47;22.57;;;-0.60;99.90;;;;;;4436418;28;658691;-75
2024/01/29 00:37:29;;;;;;;60.10;22.87;;;-0.60;99.90;;;;;;4410569;28;658680;-75
2024/01/29 00:40:17;;;;;;;55.87;22.83;;;-0.70;99.90;;;;;;4428945;28;658758;-75
2024/01/29 00:43:05;;;;;;;64.53;24.20;;;-0.70;99.90;;;;;;4414431;28;659652;-75
2024/01/29 00:45:52;;;;;;;58.90;23.48;;;-0.70;99.90;;;;;;4391229;28;658701;-76
2024/01/29 00:48:41;;;;;;;52.27;23.67;;;-0.70;99.90;;;;;;4434706;28;659603;-76
2024/01/29 00:51:28;;;;;;;59.17;24.07;;;-0.70;99.90;;;;;;4394306;28;658655;-76
2024/01/29 00:54:15;;;;;;;50.97;23.17;;;-0.70;99.90;;;;;;4445077;28;659137;-76
2024/01/29 00:57:03;;;;;;;50.77;21.83;;;-0.70;99.90;;;;;;4417451;28;658505;-76
2024/01/29 00:59:50;;;;;;;46.87;20.90;;;-0.70;99.90;;;;;;4437612;28;658904;-76
2024/01/29 01:02:37;;;;;;;49.97;21.93;;;-0.70;99.90;;;;;;4428186;28;658464;-76
2024/01/29 01:05:26;;;;;;;45.93;22.37;;;-0.80;99.90;;;;;;4434132;28;659347;-76
2024/01/29 01:08:13;;;;;;;50.37;21.57;;;-0.80;99.90;;;;;;4413516;28;658796;-76
2024/01/29 01:11:00;;;;;;;50.03;21.03;;;-0.90;99.90;;;;;;4427437;28;658929;-76
2024/01/29 01:13:49;;;;;;;52.80;21.73;;;-0.90;99.90;;;;;;4414145;28;658579;-76
2024/01/29 01:16:36;;;;;;;45.40;21.40;;;-1.00;99.90;;;;;;4442937;28;658768;-76
2024/01/29 01:19:23;;;;;;;56.53;21.47;;;-0.90;99.90;;;;;;4404224;28;658918;-75
2024/01/29 01:22:14;;;;;;;56.17;21.13;;;-0.90;99.90;;;;;;4440632;28;658697;-76
2024/01/29 01:25:01;;;;;;;50.57;20.33;;;-0.90;99.90;;;;;;4417678;28;658364;-75
2024/01/29 01:27:53;;;;;;;41.13;18.63;;;-0.90;99.90;;;;;;4407696;28;658592;-76
2024/01/29 01:30:40;;;;;;;46.17;20.43;;;-0.90;99.90;;;;;;4388717;28;659061;-76
2024/01/29 01:33:27;;;;;;;45.78;19.23;;;-0.80;99.90;;;;;;4413527;28;658633;-76
2024/01/29 01:36:15;;;;;;;44.40;18.03;;;-0.80;99.90;;;;;;4440866;28;659214;-75
2024/01/29 01:39:03;;;;;;;48.17;18.33;;;-0.70;99.90;;;;;;4424037;28;658921;-77
2024/01/29 01:41:51;;;;;;;38.57;16.03;;;-0.60;99.90;;;;;;4416580;28;658596;-75
2024/01/29 01:44:38;;;;;;;36.13;16.10;;;-0.60;99.90;;;;;;4414429;28;658844;-76
2024/01/29 01:47:25;;;;;;;39.13;16.47;;;-0.50;99.90;;;;;;4434506;28;658724;-75
2024/01/29 01:50:13;;;;;;;48.33;15.57;;;-0.50;99.90;;;;;;4414850;28;658369;-75
2024/01/29 01:53:00;;;;;;;41.17;15.53;;;-0.50;99.90;;;;;;4436215;28;660227;-75
2024/01/29 01:55:49;;;;;;;40.60;15.43;;;-0.50;99.90;;;;;;4407822;28;658599;-75
2024/01/29 01:58:36;;;;;;;37.97;15.83;;;-0.40;99.90;;;;;;4413535;28;659293;-75
2024/01/29 02:01:23;;;;;;;36.73;14.87;;;-0.40;99.90;;;;;;4413785;28;658508;-75
2024/01/29 02:04:10;;;;;;;39.83;15.60;;;-0.30;99.90;;;;;;4437082;28;659365;-75
2024/01/29 02:06:58;;;;;;;35.17;14.27;;;-0.40;99.90;;;;;;4412972;28;658489;-75
2024/01/29 02:09:45;;;;;;;35.67;14.97;;;-0.30;99.90;;;;;;4435585;28;659788;-75
2024/01/29 02:12:34;;;;;;;37.17;16.23;;;-0.40;99.90;;;;;;4413597;28;658607;-75
2024/01/29 02:15:21;;;;;;;36.90;14.97;;;-0.40;99.90;;;;;;4428327;28;658590;-75
2024/01/29 02:18:08;;;;;;;37.30;15.00;;;-0.30;99.90;;;;;;4414176;28;658818;-75
2024/01/29 02:20:56;;;;;;;33.27;15.60;;;-0.30;99.90;;;;;;4437991;28;658332;-75
2024/01/29 02:23:45;;;;;;;38.67;15.40;;;-0.30;99.90;;;;;;4411624;28;658458;-75
2024/01/29 02:26:32;;;;;;;39.03;16.63;;;-0.30;99.90;;;;;;4411080;28;658741;-76
2024/01/29 02:29:20;;;;;;;41.33;15.93;;;-0.30;99.90;;;;;;4414211;28;658864;-75
2024/01/29 02:32:07;;;;;;;37.50;15.50;;;-0.40;99.90;;;;;;4433797;28;658365;-75
2024/01/29 02:34:55;;;;;;;36.23;15.77;;;-0.40;99.90;;;;;;4430486;28;659609;-75
2024/01/29 02:37:42;;;;;;;42.57;15.83;;;-0.50;99.90;;;;;;4420545;28;658718;-75
2024/01/29 02:40:31;;;;;;;39.70;16.58;;;-0.50;99.90;;;;;;4429997;28;659057;-75
2024/01/29 02:43:18;;;;;;;42.50;15.97;;;-0.50;99.90;;;;;;4415057;28;658792;-75
2024/01/29 02:46:05;;;;;;;39.07;16.77;;;-0.50;99.90;;;;;;4432759;28;659124;-75
2024/01/29 02:48:53;;;;;;;42.33;17.33;;;-0.50;99.90;;;;;;4409383;28;658367;-75
2024/01/29 02:51:40;;;;;;;39.83;17.40;;;-0.60;99.90;;;;;;4424459;28;659234;-75
2024/01/29 02:54:27;;;;;;;45.90;17.67;;;-0.60;99.90;;;;;;4414185;28;658506;-75
2024/01/29 02:57:16;;;;;;;42.83;17.80;;;-0.70;99.90;;;;;;4432140;28;658601;-75
2024/01/29 03:00:04;;;;;;;42.50;17.90;;;-0.70;99.90;;;;;;4415327;28;658881;-75
2024/01/29 03:02:51;;;;;;;45.60;17.93;;;-0.70;99.90;;;;;;4441674;28;658690;-75
2024/01/29 03:05:38;;;;;;;35.90;16.73;;;-0.70;99.90;;;;;;4415040;28;659189;-75
2024/01/29 03:08:26;;;;;;;39.40;17.07;;;-0.70;99.90;;;;;;4418307;28;659117;-75
2024/01/29 03:11:13;;;;;;;41.20;16.73;;;-0.70;99.90;;;;;;4418487;28;658739;-75
2024/01/29 03:14:02;;;;;;;43.67;17.43;;;-0.70;99.90;;;;;;4437109;28;658695;-75
2024/01/29 03:16:51;;;;;;;47.17;18.60;;;-0.70;99.90;;;;;;4408919;28;658961;-75
2024/01/29 03:19:38;;;;;;;39.33;18.07;;;-0.80;99.90;;;;;;4406272;28;658403;-74
2024/01/29 03:22:25;;;;;;;44.77;18.33;;;-0.80;99.90;;;;;;4429000;28;658406;-74
2024/01/29 03:25:12;;;;;;;40.50;18.33;;;-0.70;99.90;;;;;;4422817;28;658747;-75
2024/01/29 03:28:00;;;;;;;43.33;18.60;;;-0.80;99.90;;;;;;4433719;28;660131;-74
2024/01/29 03:30:48;;;;;;;41.80;17.87;;;-0.80;99.90;;;;;;4428676;28;659312;-74
2024/01/29 03:33:35;;;;;;;43.83;17.87;;;-0.70;99.90;;;;;;4408109;28;659399;-74
2024/01/29 03:36:22;;;;;;;50.75;20.48;;;-0.80;99.90;;;;;;4397872;28;658621;-74
2024/01/29 03:39:10;;;;;;;39.87;17.13;;;-0.80;99.90;;;;;;4432948;28;659619;-75
2024/01/29 03:41:57;;;;;;;44.60;18.03;;;-0.80;99.90;;;;;;4420336;28;657891;-74
2024/01/29 03:44:44;;;;;;;45.30;18.77;;;-0.80;99.90;;;;;;4405054;28;658890;-74
2024/01/29 03:47:34;;;;;;;45.33;16.95;;;-0.80;99.90;;;;;;4421798;28;658390;-75
2024/01/29 03:50:21;;;;;;;41.90;17.47;;;-0.80;99.90;;;;;;4431759;28;658319;-74
2024/01/29 03:53:08;;;;;;;45.35;17.85;;;-0.80;99.90;;;;;;4406018;28;658999;-74
2024/01/29 03:55:56;;;;;;;44.00;19.37;;;-0.80;99.90;;;;;;4437184;28;659103;-74
2024/01/29 03:58:43;;;;;;;41.70;18.00;;;-0.80;99.90;;;;;;4396798;28;658684;-74
2024/01/29 04:01:30;;;;;;;49.87;18.97;;;-0.90;99.90;;;;;;4429539;28;659630;-74
2024/01/29 04:04:19;;;;;;;39.47;17.37;;;-0.90;99.90;;;;;;4419906;28;658794;-75
2024/01/29 04:07:06;;;;;;;45.20;18.67;;;-0.90;99.90;;;;;;4434034;28;658953;-74
2024/01/29 04:09:53;;;;;;;42.40;19.27;;;-1.00;99.90;;;;;;4406101;28;659262;-75
2024/01/29 04:12:40;;;;;;;47.53;19.97;;;-1.00;99.90;;;;;;4413385;28;659176;-75
2024/01/29 04:15:28;;;;;;;43.80;19.83;;;-1.10;99.90;;;;;;4410618;28;658454;-75
2024/01/29 04:18:15;;;;;;;46.67;18.47;;;-1.00;99.90;;;;;;4438176;28;659217;-74
2024/01/29 04:21:06;;;;;;;48.37;20.10;;;-1.00;99.90;;;;;;4404800;28;658729;-75
2024/01/29 04:23:53;;;;;;;53.33;19.13;;;-1.00;99.90;;;;;;4402002;28;659182;-75
2024/01/29 04:26:40;;;;;;;59.13;22.17;;;-1.00;99.90;;;;;;4411132;28;659829;-74
2024/01/29 04:29:28;;;;;;;52.40;21.53;;;-0.90;99.90;;;;;;4402101;28;658352;-75
2024/01/29 04:32:15;;;;;;;60.30;22.63;;;-1.00;99.90;;;;;;4432996;28;658694;-74
2024/01/29 04:35:02;;;;;;;58.10;22.73;;;-1.00;99.90;;;;;;4421304;28;658250;-75
2024/01/29 04:37:51;;;;;;;57.57;23.90;;;-1.10;99.90;;;;;;4422625;28;659166;-75
2024/01/29 04:40:39;;;;;;;54.90;22.67;;;-1.10;99.90;;;;;;4395655;28;659138;-75
2024/01/29 04:43:26;;;;;;;61.60;22.20;;;-1.10;99.90;;;;;;4434216;28;658416;-75
2024/01/29 04:46:13;;;;;;;59.00;22.65;;;-1.20;99.90;;;;;;4406125;28;659329;-75
2024/01/29 04:49:00;;;;;;;52.17;20.77;;;-1.20;99.90;;;;;;4434943;28;659141;-75
2024/01/29 04:51:48;;;;;;;50.60;20.30;;;-1.20;99.90;;;;;;4419687;28;658754;-75
2024/01/29 04:54:36;;;;;;;46.87;19.37;;;-1.20;99.90;;;;;;4439760;28;660033;-75
2024/01/29 04:57:23;;;;;;;48.30;20.73;;;-1.30;99.90;;;;;;4420089;28;658777;-74
2024/01/29 05:00:11;;;;;;;47.65;20.27;;;-1.40;99.90;;;;;;4436374;28;659427;-75
2024/01/29 05:02:59;;;;;;;46.97;20.83;;;-1.50;99.90;;;;;;4398818;28;658849;-75
2024/01/29 05:05:46;;;;;;;54.23;22.20;;;-1.60;99.90;;;;;;4435639;28;658675;-75
2024/01/29 05:08:33;;;;;;;46.47;19.30;;;-1.60;99.90;;;;;;4397331;28;658951;-75
2024/01/29 05:11:21;;;;;;;46.83;20.63;;;-1.60;99.90;;;;;;4436082;28;658969;-75
2024/01/29 05:14:09;;;;;;;51.20;21.10;;;-1.60;99.90;;;;;;4392952;28;658880;-75
2024/01/29 05:16:56;;;;;;;51.90;22.10;;;-1.60;99.90;;;;;;4428733;28;658866;-76
2024/01/29 05:19:45;;;;;;;51.97;21.60;;;-1.70;99.90;;;;;;4410203;28;658696;-76
2024/01/29 05:22:32;;;;;;;46.10;19.80;;;-1.80;99.90;;;;;;4421044;28;658648;-75
2024/01/29 05:25:20;;;;;;;52.37;21.33;;;-1.80;99.90;;;;;;4435374;28;659313;-75
2024/01/29 05:28:08;;;;;;;50.73;19.73;;;-1.80;99.90;;;;;;4435372;28;658839;-75
2024/01/29 05:30:55;;;;;;;54.67;20.73;;;-1.80;99.90;;;;;;4413419;28;659033;-76
2024/01/29 05:33:43;;;;;;;49.30;20.40;;;-1.80;99.90;;;;;;4407273;28;658801;-76
2024/01/29 05:36:30;;;;;;;52.83;21.10;;;-2.00;99.90;;;;;;4437474;28;659782;-76
2024/01/29 05:39:17;;;;;;;47.20;20.67;;;-2.00;99.90;;;;;;4428045;28;658519;-76
2024/01/29 05:42:05;;;;;;;52.30;20.57;;;-1.90;99.90;;;;;;4444650;28;659071;-77
2024/01/29 05:44:54;;;;;;;49.47;19.87;;;-1.80;99.90;;;;;;4422230;28;658989;-78
2024/01/29 05:47:41;;;;;;;55.10;21.47;;;-1.90;99.90;;;;;;4446123;28;659051;-77
2024/01/29 05:50:28;;;;;;;53.30;20.57;;;-2.00;99.90;;;;;;4395302;28;658355;-78
2024/01/29 05:53:19;;;;;;;60.20;21.57;;;-1.90;99.90;;;;;;4437625;28;660435;-78
2024/01/29 05:56:07;;;;;;;50.33;20.83;;;-1.90;99.90;;;;;;4409703;28;658642;-78
2024/01/29 05:58:54;;;;;;;53.67;20.70;;;-1.90;99.90;;;;;;4415115;28;658456;-78
2024/01/29 06:01:43;;;;;;;55.27;21.77;;;-2.00;99.90;;;;;;4439855;28;658507;-78
2024/01/29 06:04:30;;;;;;;53.17;20.77;;;-2.10;99.90;;;;;;4411150;28;658894;-76
2024/01/29 06:07:18;;;;;;;55.17;21.05;;;-2.20;99.90;;;;;;4414274;28;658473;-78
2024/01/29 06:10:06;;;;;;;59.27;22.23;;;-2.20;99.90;;;;;;4433460;28;659280;-77
2024/01/29 06:12:53;;;;;;;58.97;22.27;;;-2.20;99.90;;;;;;4416022;28;658582;-77
2024/01/29 06:15:40;;;;;;;62.23;24.27;;;-2.30;99.90;;;;;;4430071;28;658831;-78
2024/01/29 06:18:29;;;;;;;104.27;25.50;;;-2.40;99.90;;;;;;4400674;28;658813;-78
2024/01/29 06:21:16;;;;;;;66.83;25.10;;;-2.40;99.90;;;;;;4432448;28;659478;-77
2024/01/29 06:24:04;;;;;;;66.37;26.70;;;-2.40;99.90;;;;;;4418040;28;658839;-78
2024/01/29 06:26:51;;;;;;;61.80;26.50;;;-2.30;99.90;;;;;;4436168;28;659241;-79
2024/01/29 06:29:38;;;;;;;69.13;29.47;;;-2.20;99.90;;;;;;4416201;28;658899;-78
2024/01/29 06:32:25;;;;;;;62.73;25.20;;;-2.10;99.90;;;;;;4426610;28;659123;-78
2024/01/29 06:35:15;;;;;;;59.67;25.23;;;-2.00;99.90;;;;;;4416099;28;658960;-78
2024/01/29 06:38:03;;;;;;;56.47;22.53;;;-1.90;99.90;;;;;;4437095;28;658216;-78
2024/01/29 06:40:50;;;;;;;55.23;23.27;;;-1.80;99.90;;;;;;4437470;28;659490;-79
2024/01/29 06:43:37;;;;;;;52.80;21.97;;;-1.80;99.90;;;;;;4427672;28;658783;-78
2024/01/29 06:46:25;;;;;;;58.23;23.93;;;-1.70;99.90;;;;;;4436337;28;658524;-78
2024/01/29 06:49:24;;;;;;;53.93;23.53;;;-1.60;99.90;;;;;;4434898;28;658383;-78
2024/01/29 06:52:13;;;;;;;53.63;22.92;;;-1.70;99.90;;;;;;4418029;28;659092;-79
2024/01/29 06:55:01;;;;;;;52.10;23.17;;;-1.70;99.90;;;;;;4420429;28;658455;-78
2024/01/29 06:57:48;;;;;;;57.50;23.10;;;-1.60;99.90;;;;;;4416380;28;659093;-78
2024/01/29 07:00:36;;;;;;;61.33;25.13;;;-1.60;99.90;;;;;;4447490;28;659052;-78
2024/01/29 07:03:23;;;;;;;57.77;24.50;;;-1.60;99.90;;;;;;4407917;28;659213;-78
2024/01/29 07:06:11;;;;;;;55.90;25.23;;;-1.80;99.90;;;;;;4412641;28;659434;-76
2024/01/29 07:08:59;;;;;;;60.20;25.43;;;-1.80;99.90;;;;;;4406122;28;658639;-76
2024/01/29 07:11:46;;;;;;;54.43;25.70;;;-1.80;99.90;;;;;;4433333;28;658698;-77
2024/01/29 07:14:35;;;;;;;59.73;25.90;;;-1.90;99.90;;;;;;4411514;28;658720;-78
2024/01/29 07:17:23;;;;;;;64.30;26.33;;;-1.90;99.90;;;;;;4427614;28;658517;-78
2024/01/29 07:20:11;;;;;;;144.73;24.43;;;-2.00;99.90;;;;;;4433678;28;658996;-78
2024/01/29 07:22:58;;;;;;;244.00;27.50;;;-2.00;99.90;;;;;;4414058;28;660825;-78
2024/01/29 07:25:47;;;;;;;99.43;25.60;;;-2.00;99.90;;;;;;4435115;28;659769;-78
2024/01/29 07:28:34;;;;;;;166.10;28.50;;;-2.00;99.90;;;;;;4406042;28;659128;-78
2024/01/29 07:31:21;;;;;;;214.80;31.80;;;-1.90;99.90;;;;;;4436569;28;659730;-78
2024/01/29 07:34:09;;;;;;;198.43;29.93;;;-1.90;99.90;;;;;;4406876;28;659846;-79
2024/01/29 07:36:56;;;;;;;242.60;31.83;;;-1.90;99.90;;;;;;4438556;28;660176;-78
2024/01/29 07:39:43;;;;;;;229.67;34.70;;;-1.90;99.90;;;;;;4412931;28;659755;-78
2024/01/29 07:42:31;;;;;;;230.73;34.23;;;-2.00;99.90;;;;;;4435681;28;660111;-79
2024/01/29 07:45:19;;;;;;;135.60;34.40;;;-2.00;99.90;;;;;;4411320;28;660071;-78
2024/01/29 07:48:07;;;;;;;111.73;33.93;;;-1.90;99.90;;;;;;4427261;28;659928;-78
2024/01/29 07:50:54;;;;;;;92.50;31.97;;;-1.80;99.90;;;;;;4401932;28;659489;-78
2024/01/29 07:53:41;;;;;;;80.63;31.37;;;-1.60;99.90;;;;;;4432221;28;658739;-78
2024/01/29 07:56:28;;;;;;;103.33;33.93;;;-1.50;99.90;;;;;;4410291;28;658595;-78
2024/01/29 07:59:17;;;;;;;83.70;29.77;;;-1.50;99.90;;;;;;4425391;28;660506;-79
2024/01/29 08:02:04;;;;;;;70.47;27.63;;;-1.30;99.90;;;;;;4413428;28;659333;-79
2024/01/29 08:04:51;;;;;;;69.40;26.23;;;-1.10;99.90;;;;;;4432138;28;658926;-78
2024/01/29 08:07:39;;;;;;;67.77;27.07;;;-1.00;99.90;;;;;;4405930;28;658603;-78
2024/01/29 08:10:26;;;;;;;76.23;30.53;;;-0.90;99.90;;;;;;4430071;28;658708;-79
2024/01/29 08:13:13;;;;;;;75.47;31.17;;;-0.80;99.90;;;;;;4414073;28;658556;-79
2024/01/29 08:16:02;;;;;;;105.25;37.78;;;-0.50;99.90;;;;;;4437848;28;658354;-79
2024/01/29 08:18:49;;;;;;;100.97;37.57;;;-0.10;99.90;;;;;;4394080;28;660235;-78
2024/01/29 08:21:37;;;;;;;86.30;33.70;;;0.30;99.90;;;;;;4419144;28;659873;-78
2024/01/29 08:24:24;;;;;;;74.50;32.87;;;0.70;99.90;;;;;;4400435;28;658024;-79
2024/01/29 08:27:11;;;;;;;106.60;39.27;;;1.00;99.90;;;;;;4435996;28;658451;-77
2024/01/29 08:29:58;;;;;;;94.57;40.57;;;1.20;99.90;;;;;;4412030;28;658509;-77
2024/01/29 08:32:47;;;;;;;148.73;54.40;;;1.90;99.90;;;;;;4442606;28;658186;-77
2024/01/29 08:35:34;;;;;;;135.80;51.83;;;2.80;99.90;;;;;;4401837;28;659853;-77
2024/01/29 08:38:22;;;;;;;129.00;46.63;;;3.10;99.90;;;;;;4420334;28;658735;-77
2024/01/29 08:41:09;;;;;;;75.17;29.20;;;3.70;99.90;;;;;;4392760;28;659272;-79
2024/01/29 08:43:56;;;;;;;105.27;43.73;;;3.30;99.90;;;;;;4436693;28;657550;-79
2024/01/29 08:46:44;;;;;;;102.87;41.67;;;3.60;99.90;;;;;;4413288;28;658841;-79
2024/01/29 08:49:32;;;;;;;103.37;43.50;;;3.50;99.90;;;;;;4430674;28;659181;-80
2024/01/29 08:52:19;;;;;;;89.67;38.17;;;3.80;99.90;;;;;;4420618;28;659195;-81
2024/01/29 08:55:08;;;;;;;73.93;38.13;;;4.20;99.90;;;;;;4429904;28;657360;-79
2024/01/29 08:57:55;;;;;;;58.20;24.20;;;4.50;99.90;;;;;;4410855;28;657575;-79
2024/01/29 09:00:42;;;;;;;55.47;26.07;;;3.80;99.90;;;;;;4407534;28;657907;-79
2024/01/29 09:03:30;;;;;;;82.90;35.70;;;4.70;99.90;;;;;;4430878;28;658282;-79
2024/01/29 09:06:19;;;;;;;70.80;33.10;;;4.90;99.90;;;;;;4412386;28;658253;-79
2024/01/29 09:09:07;;;;;;;64.10;26.40;;;5.00;99.90;;;;;;4439636;28;657543;-78
2024/01/29 09:11:54;;;;;;;45.73;21.00;;;5.10;99.90;;;;;;4416814;28;657685;-77
2024/01/29 09:14:41;;;;;;;30.33;14.40;;;5.60;99.90;;;;;;4436326;28;657349;-77
2024/01/29 09:17:28;;;;;;;27.57;12.70;;;5.80;99.90;;;;;;4422198;28;657985;-76
2024/01/29 09:20:16;;;;;;;30.00;13.73;;;5.50;99.90;;;;;;4438100;28;657651;-75
2024/01/29 09:23:05;;;;;;;27.13;12.60;;;5.70;99.90;;;;;;4404707;28;658147;-75
2024/01/29 09:25:52;;;;;;;35.60;17.57;;;5.90;99.90;;;;;;4416519;28;657517;-75
2024/01/29 09:28:41;;;;;;;30.83;15.47;;;6.60;99.90;;;;;;4432326;28;657867;-76
2024/01/29 09:31:28;;;;;;;32.83;15.33;;;7.30;99.90;;;;;;4412121;28;658091;-76
2024/01/29 09:34:16;;;;;;;20.50;10.23;;;7.60;99.90;;;;;;4439783;28;657739;-76
2024/01/29 09:37:03;;;;;;;19.00;9.87;;;7.60;99.90;;;;;;4414564;28;657586;-76
2024/01/29 09:39:53;;;;;;;23.53;9.27;;;8.10;99.90;;;;;;4422617;28;656966;-76
2024/01/29 09:42:41;;;;;;;19.17;10.10;;;8.60;99.90;;;;;;4400800;28;657082;-77
2024/01/29 09:45:28;;;;;;;20.23;9.97;;;8.40;99.90;;;;;;4403893;28;657801;-76
2024/01/29 09:48:15;;;;;;;23.90;11.60;;;8.80;99.90;;;;;;4441934;28;657522;-77
2024/01/29 09:51:03;;;;;;;26.50;12.73;;;9.10;99.90;;;;;;4417080;28;658573;-77
2024/01/29 09:53:50;;;;;;;13.87;6.90;;;8.80;99.90;;;;;;4439090;28;657994;-76
2024/01/29 09:56:39;;;;;;;17.97;9.27;;;8.80;99.90;;;;;;4411178;28;656520;-77
2024/01/29 09:59:26;;;;;;;16.83;8.53;;;8.40;99.90;;;;;;4424605;28;656398;-76
2024/01/29 10:02:13;;;;;;;20.27;9.80;;;8.80;99.90;;;;;;4410988;28;656683;-76
2024/01/29 10:05:00;;;;;;;18.40;8.93;;;9.20;99.90;;;;;;4432460;28;657343;-76
2024/01/29 10:07:49;;;;;;;20.30;9.40;;;9.10;99.90;;;;;;4409577;28;656693;-76
2024/01/29 10:10:37;;;;;;;17.73;8.30;;;9.20;99.90;;;;;;4429752;28;656765;-75
2024/01/29 10:13:25;;;;;;;18.27;9.73;;;10.10;99.90;;;;;;4413142;28;656992;-75
2024/01/29 10:16:12;;;;;;;18.33;9.47;;;10.50;99.90;;;;;;4415288;28;657637;-76
2024/01/29 10:19:00;;;;;;;19.10;9.67;;;10.20;87.20;;;;;;4433801;28;658071;-75
2024/01/29 10:21:47;;;;;;;20.57;9.30;;;9.50;99.90;;;;;;4409712;28;658112;-75
2024/01/29 10:24:35;;;;;;;18.27;9.33;;;9.70;99.90;;;;;;4424225;28;657312;-75
2024/01/29 10:27:22;;;;;;;14.73;7.87;;;9.40;99.90;;;;;;4418469;28;656766;-75
2024/01/29 10:30:12;;;;;;;13.07;6.30;;;10.10;93.60;;;;;;4411010;28;657220;-74
2024/01/29 10:32:59;;;;;;;9.73;5.37;;;10.60;73.10;;;;;;4408561;28;658401;-75
2024/01/29 10:35:46;;;;;;;11.57;5.87;;;10.60;70.30;;;;;;4434956;28;656526;-74
2024/01/29 10:38:34;;;;;;;12.10;6.10;;;10.50;71.80;;;;;;4414603;28;657582;-75
2024/01/29 10:41:21;;;;;;;13.47;6.57;;;10.90;88.70;;;;;;4438286;28;657657;-74
2024/01/29 10:44:08;;;;;;;15.90;8.13;;;10.70;93.40;;;;;;4415906;28;657573;-74
2024/01/29 10:46:57;;;;;;;12.83;6.60;;;11.50;70.40;;;;;;4439425;28;657537;-74
2024/01/29 10:49:44;;;;;;;14.50;7.30;;;11.60;71.40;;;;;;4413475;28;659044;-74
2024/01/29 10:52:31;;;;;;;15.07;7.47;;;11.70;64.30;;;;;;4434436;28;658118;-74
2024/01/29 10:55:19;;;;;;;21.07;8.63;;;11.10;79.70;;;;;;4411428;28;658461;-74
2024/01/29 10:58:06;;;;;;;18.63;8.23;;;11.60;78.70;;;;;;4431650;28;658441;-73
2024/01/29 11:00:53;;;;;;;20.30;8.83;;;12.70;70.80;;;;;;4412047;28;657516;-73
2024/01/29 11:03:42;;;;;;;17.47;8.27;;;12.70;60.00;;;;;;4415433;28;658163;-73
2024/01/29 11:06:31;;;;;;;21.70;9.30;;;12.20;63.10;;;;;;4411668;28;657991;-73
2024/01/29 11:09:20;;;;;;;20.83;10.27;;;12.60;63.60;;;;;;4415777;28;657654;-73
2024/01/29 11:12:09;;;;;;;18.73;9.70;;;13.10;61.90;;;;;;4413925;28;658852;-73
2024/01/29 11:14:58;;;;;;;20.07;10.00;;;13.10;59.50;;;;;;4414632;28;657196;-72
2024/01/29 11:17:45;;;;;;;24.53;11.90;;;12.50;61.40;;;;;;4401659;28;659698;-73
2024/01/29 11:20:34;;;;;;;21.20;11.40;;;12.50;60.30;;;;;;4412307;28;658755;-72
2024/01/29 11:23:22;;;;;;;25.63;12.37;;;13.60;62.90;;;;;;4417767;28;658430;-72
2024/01/29 11:26:12;;;;;;;24.33;11.97;;;13.70;61.60;;;;;;4402746;28;659577;-72
2024/01/29 11:29:02;;;;;;;23.77;12.07;;;13.60;59.80;;;;;;4388177;28;659605;-72
2024/01/29 11:31:51;;;;;;;29.13;14.00;;;14.10;59.20;;;;;;4408656;28;659021;-72
2024/01/29 11:34:40;;;;;;;30.27;13.23;;;13.90;56.20;;;;;;4396978;28;658636;-72
2024/01/29 11:37:29;;;;;;;25.90;12.67;;;13.90;59.00;;;;;;4405739;28;658731;-73
2024/01/29 11:40:33;;;;;;;23.30;11.43;;;14.30;58.50;;;;;;4433407;28;658242;-72
2024/01/29 11:43:20;;;;;;;25.70;11.93;;;15.20;55.40;;;;;;4410432;28;658625;-72
2024/01/29 11:46:08;;;;;;;26.70;12.07;;;15.40;52.90;;;;;;4403335;28;658559;-72
2024/01/29 11:48:56;;;;;;;26.73;12.20;;;14.30;55.20;;;;;;4429553;28;659452;-72
2024/01/29 11:51:43;;;;;;;26.60;12.53;;;14.70;57.30;;;;;;4389371;28;658760;-72
2024/01/29 11:54:32;;;;;;;24.57;12.30;;;15.10;56.10;;;;;;4424517;28;659925;-72
2024/01/29 11:57:19;;;;;;;27.10;13.20;;;14.60;57.50;;;;;;4411586;28;659053;-72
2024/01/29 12:00:08;;;;;;;29.90;13.87;;;14.20;57.20;;;;;;4413257;28;658372;-72
2024/01/29 12:02:55;;;;;;;34.17;13.47;;;14.10;55.90;;;;;;4407950;28;658831;-72
2024/01/29 12:05:43;;;;;;;23.80;12.17;;;14.00;56.40;;;;;;4405675;28;659210;-72
2024/01/29 12:08:30;;;;;;;22.73;12.13;;;14.70;60.00;;;;;;4425377;28;660345;-72
2024/01/29 12:11:20;;;;;;;27.73;13.18;;;15.80;55.90;;;;;;4411664;28;659164;-72
2024/01/29 12:14:09;;;;;;;24.10;11.17;;;16.20;54.20;;;;;;4409997;28;659206;-72
2024/01/29 12:16:57;;;;;;;22.30;10.80;;;15.70;51.00;;;;;;4423785;28;658484;-72
2024/01/29 12:19:44;;;;;;;22.00;11.23;;;15.50;53.20;;;;;;4412529;28;659391;-72
2024/01/29 12:22:31;;;;;;;23.83;10.93;;;14.90;53.20;;;;;;4407286;28;659361;-72
2024/01/29 12:25:18;;;;;;;24.57;11.47;;;15.30;53.90;;;;;;4408373;28;658933;-72
2024/01/29 12:28:09;;;;;;;23.10;11.53;;;16.50;51.00;;;;;;4423877;28;658550;-72
2024/01/29 12:30:57;;;;;;;22.77;11.20;;;17.10;48.90;;;;;;4408311;28;658915;-73
2024/01/29 12:33:47;;;;;;;24.93;12.20;;;17.30;45.00;;;;;;4405257;28;660563;-72
2024/01/29 12:36:34;;;;;;;28.90;13.70;;;17.10;46.20;;;;;;4398729;28;658978;-72
2024/01/29 12:39:21;;;;;;;18.42;8.98;;;16.50;47.90;;;;;;4410329;28;658145;-72
2024/01/29 12:42:14;;;;;;;22.17;11.27;;;16.60;45.10;;;;;;4414737;28;658038;-71
2024/01/29 12:45:10;;;;;;;21.70;10.50;;;16.00;48.30;;;;;;4407880;28;658564;-71
2024/01/29 12:48:06;;;;;;;22.73;12.17;;;16.20;47.90;;;;;;4385875;28;660064;-72
2024/01/29 12:50:53;;;;;;;18.60;10.17;;;16.60;49.10;;;;;;4408447;28;658298;-71
2024/01/29 12:53:41;;;;;;;21.93;10.43;;;15.00;46.70;;;;;;4430360;28;658641;-71
2024/01/29 12:56:30;;;;;;;25.93;11.63;;;15.70;48.20;;;;;;4414661;28;658842;-72
2024/01/29 12:59:17;;;;;;;18.20;10.93;;;15.80;47.50;;;;;;4429034;28;658508;-72
2024/01/29 13:02:06;;;;;;;17.97;9.70;;;16.60;46.90;;;;;;4415279;28;659844;-72
2024/01/29 13:04:53;;;;;;;22.47;11.60;;;16.30;45.80;;;;;;4411809;28;657354;-72
2024/01/29 13:07:41;;;;;;;22.10;11.27;;;15.60;47.80;;;;;;4425242;28;660911;-72
2024/01/29 13:10:30;;;;;;;21.83;10.77;;;14.90;51.10;;;;;;4402975;28;658814;-72
2024/01/29 13:13:17;;;;;;;18.23;9.63;;;15.60;51.70;;;;;;4437588;28;659393;-73
2024/01/29 13:16:04;;;;;;;18.33;9.60;;;15.50;48.30;;;;;;4417136;28;658334;-72
2024/01/29 13:18:53;;;;;;;19.33;9.80;;;17.00;46.40;;;;;;4430520;28;657514;-71
2024/01/29 13:21:44;;;;;;;16.70;8.93;;;17.30;44.60;;;;;;4408850;28;658208;-71
2024/01/29 13:24:31;;;;;;;19.23;10.03;;;16.50;46.00;;;;;;4400110;28;657895;-72
2024/01/29 13:27:20;;;;;;;20.17;10.37;;;15.50;47.00;;;;;;4400642;28;658748;-73
2024/01/29 13:30:08;;;;;;;19.03;9.97;;;15.40;47.90;;;;;;4424625;28;658929;-72
2024/01/29 13:32:55;;;;;;;20.70;10.80;;;15.60;46.60;;;;;;4434128;28;658235;-72
2024/01/29 13:35:44;;;;;;;19.23;9.77;;;15.70;46.20;;;;;;4413729;28;659044;-72
2024/01/29 13:38:31;;;;;;;16.30;8.10;;;16.10;46.00;;;;;;4439466;28;657521;-72
2024/01/29 13:41:18;;;;;;;17.90;9.07;;;14.50;47.00;;;;;;4413045;28;657610;-72
2024/01/29 13:44:06;;;;;;;17.10;9.40;;;14.50;47.70;;;;;;4433161;28;657949;-73
2024/01/29 13:46:53;;;;;;;14.07;8.00;;;14.90;47.90;;;;;;4410731;28;658547;-73
2024/01/29 13:49:40;;;;;;;13.57;7.57;;;15.30;47.80;;;;;;4440941;28;658054;-73
2024/01/29 13:52:29;;;;;;;12.23;6.77;;;15.30;45.80;;;;;;4402306;28;657910;-73
2024/01/29 13:55:16;;;;;;;10.57;5.30;;;14.80;44.80;;;;;;4430814;28;658699;-73
2024/01/29 13:58:03;;;;;;;14.13;6.47;;;15.00;44.20;;;;;;4414562;28;657805;-72
2024/01/29 14:00:51;;;;;;;11.77;5.57;;;15.40;42.40;;;;;;4435109;28;658275;-73
2024/01/29 14:03:41;;;;;;;16.43;6.83;;;14.70;41.60;;;;;;4415945;28;658324;-72